createdAt,value
2024-02-11T00:03:50.840Z,18.38
2024-02-11T00:08:12.376Z,16.43
2024-02-11T00:12:35.053Z,19.55
2024-02-11T00:16:54.124Z,19.38
2024-02-11T00:21:17.188Z,19.20
2024-02-11T00:25:38.422Z,19.80
2024-02-11T00:30:00.012Z,19.13
2024-02-11T00:34:17.901Z,17.25
2024-02-11T00:38:40.823Z,17.77
2024-02-11T00:43:00.929Z,18.38
2024-02-11T00:47:21.091Z,19.05
2024-02-11T00:51:38.885Z,18.40
2024-02-11T00:55:58.760Z,17.55
2024-02-11T01:00:19.839Z,18.88
2024-02-11T01:04:42.169Z,17.70
2024-02-11T01:09:01.051Z,18.35
2024-02-11T01:13:19.833Z,17.08
2024-02-11T01:17:40.474Z,18.25
2024-02-11T01:21:57.490Z,15.97
2024-02-11T01:26:15.872Z,14.43
2024-02-11T01:30:35.589Z,19.23
2024-02-11T01:34:54.922Z,18.67
2024-02-11T01:39:13.074Z,20.45
2024-02-11T01:43:31.368Z,20.25
2024-02-11T01:47:50.510Z,17.07
2024-02-11T01:52:11.630Z,19.75
2024-02-11T01:56:31.886Z,18.23
2024-02-11T02:00:50.952Z,15.50
2024-02-11T02:05:10.510Z,18.63
2024-02-11T02:09:31.576Z,14.95
2024-02-11T02:13:51.401Z,19.15
2024-02-11T02:18:11.589Z,14.83
2024-02-11T02:22:31.764Z,15.95
2024-02-11T02:26:51.285Z,16.15
2024-02-11T02:31:09.242Z,15.43
2024-02-11T02:35:27.501Z,17.52
2024-02-11T02:39:47.073Z,16.00
2024-02-11T02:44:06.715Z,19.38
2024-02-11T02:48:25.077Z,22.17
2024-02-11T02:52:42.520Z,19.35
2024-02-11T02:57:02.037Z,20.42
2024-02-11T03:01:24.165Z,21.37
2024-02-11T03:05:45.540Z,24.63
2024-02-11T03:10:07.635Z,27.15
2024-02-11T03:14:26.807Z,28.37
2024-02-11T03:18:49.845Z,37.08
2024-02-11T03:23:07.739Z,33.40
2024-02-11T03:27:25.862Z,35.20
2024-02-11T03:31:45.539Z,39.37
2024-02-11T03:36:05.280Z,41.78
2024-02-11T03:40:22.828Z,43.53
2024-02-11T03:44:40.699Z,45.20
2024-02-11T03:49:03.792Z,50.28
2024-02-11T03:53:23.221Z,53.05
2024-02-11T03:57:44.721Z,54.03
2024-02-11T04:02:05.110Z,51.40
2024-02-11T04:06:24.807Z,53.30
2024-02-11T04:10:44.472Z,39.92
2024-02-11T04:15:03.538Z,57.97
2024-02-11T04:19:22.203Z,56.58
2024-02-11T04:23:45.048Z,59.40
2024-02-11T04:28:03.297Z,59.03
2024-02-11T04:32:23.880Z,56.22
2024-02-11T04:36:42.554Z,61.38
2024-02-11T04:41:02.395Z,56.57
2024-02-11T04:45:22.205Z,58.85
2024-02-11T04:49:40.148Z,54.70
2024-02-11T04:53:58.894Z,53.40
2024-02-11T04:58:21.713Z,58.00
2024-02-11T05:02:41.377Z,57.92
2024-02-11T05:07:01.020Z,51.50
2024-02-11T05:11:18.847Z,53.03
2024-02-11T05:15:39.926Z,52.42
2024-02-11T05:19:57.981Z,51.25
2024-02-11T05:24:16.060Z,47.10
2024-02-11T05:28:36.684Z,43.58
2024-02-11T05:32:59.066Z,46.30
2024-02-11T05:37:17.424Z,44.97
2024-02-11T05:41:34.365Z,45.50
2024-02-11T05:45:52.385Z,38.30
2024-02-11T05:50:14.125Z,44.83
2024-02-11T05:54:31.653Z,44.30
2024-02-11T05:58:50.445Z,42.60
2024-02-11T06:03:07.662Z,40.50
2024-02-11T06:07:27.192Z,43.33
2024-02-11T06:11:46.911Z,42.03
2024-02-11T06:16:07.781Z,38.85
2024-02-11T06:20:26.316Z,41.30
2024-02-11T06:24:45.656Z,37.10
2024-02-11T06:29:06.060Z,36.63
2024-02-11T06:33:23.426Z,43.45
2024-02-11T06:37:42.333Z,41.10
2024-02-11T06:42:04.157Z,43.67
2024-02-11T06:46:26.085Z,42.38
2024-02-11T06:50:49.557Z,42.23
2024-02-11T06:55:12.277Z,41.88
2024-02-11T06:59:34.044Z,43.25
2024-02-11T07:03:54.820Z,42.13
2024-02-11T07:08:29.516Z,50.63
2024-02-11T07:12:52.100Z,45.30
2024-02-11T07:17:16.166Z,46.72
2024-02-11T07:21:37.559Z,45.57
2024-02-11T07:25:55.467Z,50.13
2024-02-11T07:30:16.858Z,37.47
2024-02-11T07:34:41.242Z,46.30
2024-02-11T07:38:58.740Z,47.22
2024-02-11T07:43:18.631Z,46.95
2024-02-11T07:47:39.914Z,49.25
2024-02-11T07:52:08.520Z,51.90
2024-02-11T07:56:31.184Z,50.03
2024-02-11T08:00:55.201Z,48.60
2024-02-11T08:05:20.164Z,46.83
2024-02-11T08:09:42.934Z,52.55
2024-02-11T08:14:03.183Z,45.08
2024-02-11T08:18:21.126Z,50.63
2024-02-11T08:22:39.254Z,52.67
2024-02-11T08:26:58.990Z,52.33
2024-02-11T08:31:19.570Z,52.17
2024-02-11T08:35:39.441Z,51.63
2024-02-11T08:39:57.604Z,53.35
2024-02-11T08:44:17.315Z,50.47
2024-02-11T08:48:36.705Z,45.33
2024-02-11T08:52:54.976Z,52.15
2024-02-11T08:57:14.685Z,58.10
2024-02-11T09:01:35.388Z,51.03
2024-02-11T09:05:57.169Z,50.17
2024-02-11T09:10:16.690Z,53.10
2024-02-11T09:14:38.475Z,53.00
2024-02-11T09:19:00.099Z,39.27
2024-02-11T09:23:19.610Z,47.25
2024-02-11T09:27:37.970Z,38.03
2024-02-11T09:31:56.753Z,41.23
2024-02-11T09:36:15.705Z,45.65
2024-02-11T09:40:37.210Z,42.92
2024-02-11T09:45:00.454Z,44.73
2024-02-11T09:49:22.844Z,45.45
2024-02-11T09:53:43.607Z,44.00
2024-02-11T09:58:02.614Z,42.35
2024-02-11T10:02:21.187Z,40.17
2024-02-11T10:06:40.916Z,38.78
2024-02-11T10:11:01.905Z,37.95
2024-02-11T10:15:23.695Z,45.67
2024-02-11T10:19:42.135Z,36.50
2024-02-11T10:24:00.924Z,42.22
2024-02-11T10:28:19.912Z,43.77
2024-02-11T10:32:39.863Z,37.83
2024-02-11T10:36:58.123Z,35.33
2024-02-11T10:41:16.107Z,34.30
2024-02-11T10:45:36.755Z,34.43
2024-02-11T10:49:54.611Z,36.95
2024-02-11T10:54:15.869Z,35.75
2024-02-11T10:58:39.366Z,34.63
2024-02-11T11:03:04.197Z,35.35
2024-02-11T11:07:28.833Z,35.65
2024-02-11T11:11:50.535Z,36.10
2024-02-11T11:16:15.253Z,37.30
2024-02-11T11:20:38.233Z,40.60
2024-02-11T11:24:56.466Z,41.25
2024-02-11T11:29:25.254Z,36.50
2024-02-11T11:33:45.310Z,43.03
2024-02-11T11:38:08.460Z,44.35
2024-02-11T11:42:27.188Z,40.97
2024-02-11T11:46:45.000Z,35.55
2024-02-11T11:51:03.985Z,37.95
2024-02-11T11:55:25.684Z,41.70
2024-02-11T11:59:47.403Z,43.45
2024-02-11T12:04:10.250Z,42.63
2024-02-11T12:08:37.262Z,48.05
2024-02-11T12:13:06.410Z,46.33
2024-02-11T12:17:28.828Z,46.97
2024-02-11T12:21:49.842Z,49.13
2024-02-11T12:26:10.613Z,46.30
2024-02-11T12:30:31.729Z,45.67
2024-02-11T12:34:49.352Z,43.95
2024-02-11T12:39:09.719Z,43.83
2024-02-11T12:43:29.332Z,46.15
2024-02-11T12:47:48.264Z,46.33
2024-02-11T12:52:12.605Z,45.75
2024-02-11T12:56:31.796Z,47.93
2024-02-11T13:00:49.865Z,43.35
2024-02-11T13:05:12.415Z,47.17
2024-02-11T13:09:33.678Z,43.13
2024-02-11T13:13:58.943Z,43.78
2024-02-11T13:18:20.625Z,44.83
2024-02-11T13:22:46.409Z,46.07
2024-02-11T13:27:06.276Z,43.80
2024-02-11T13:31:27.361Z,43.92
2024-02-11T13:35:49.009Z,47.25
2024-02-11T13:40:13.490Z,40.93
2024-02-11T13:44:36.666Z,43.45
2024-02-11T13:49:08.140Z,44.53
2024-02-11T13:53:28.426Z,46.10
2024-02-11T13:57:49.541Z,42.97
2024-02-11T14:02:09.574Z,46.95
2024-02-11T14:07:00.963Z,48.67
2024-02-11T14:11:21.182Z,44.90
2024-02-11T14:15:42.610Z,46.38
2024-02-11T14:20:04.094Z,44.50
2024-02-11T14:24:57.879Z,45.30
2024-02-11T14:43:56.110Z,42.65
2024-02-11T14:48:15.129Z,47.00
2024-02-11T14:52:34.998Z,45.03
2024-02-11T14:56:59.949Z,48.63
2024-02-11T15:01:22.055Z,46.70
2024-02-11T15:05:39.966Z,42.35
2024-02-11T15:09:57.751Z,43.67
2024-02-11T15:14:17.490Z,42.63
2024-02-11T15:18:42.363Z,44.58
2024-02-11T15:23:00.685Z,42.37
2024-02-11T15:27:20.447Z,43.25
2024-02-11T15:31:42.247Z,47.03
2024-02-11T15:36:03.011Z,50.73
2024-02-11T15:40:22.236Z,53.67
2024-02-11T15:44:40.509Z,49.17
2024-02-11T15:48:58.496Z,50.42
2024-02-11T15:53:17.648Z,50.23
2024-02-11T15:57:35.412Z,54.05
2024-02-11T16:01:55.005Z,56.33
2024-02-11T16:06:13.650Z,57.30
2024-02-11T16:10:34.322Z,55.40
2024-02-11T16:14:53.729Z,51.28
2024-02-11T16:19:10.965Z,52.70
2024-02-11T16:23:29.347Z,56.28
2024-02-11T16:27:51.214Z,52.85
2024-02-11T16:32:10.781Z,48.45
2024-02-11T16:36:30.985Z,53.53
2024-02-11T16:40:50.672Z,56.70
2024-02-11T16:45:13.933Z,53.92
2024-02-11T16:49:34.856Z,51.03
2024-02-11T16:53:54.009Z,54.17
2024-02-11T16:58:11.863Z,57.58
2024-02-11T17:02:34.210Z,50.87
2024-02-11T17:06:53.429Z,55.53
2024-02-11T17:16:10.009Z,53.25
2024-02-11T17:20:32.906Z,53.30
2024-02-11T17:24:52.820Z,47.88
2024-02-11T17:29:16.300Z,17.58
2024-02-11T17:33:54.202Z,9.83
2024-02-11T17:38:12.684Z,6.63
2024-02-11T17:42:33.985Z,8.38
2024-02-11T17:46:53.386Z,7.57
2024-02-11T17:51:17.215Z,6.90
2024-02-11T17:55:39.681Z,6.82
2024-02-11T17:59:57.514Z,6.70
2024-02-11T18:04:16.514Z,6.27
2024-02-11T18:08:36.978Z,11.50
2024-02-11T18:13:00.183Z,7.15
2024-02-11T18:17:18.186Z,7.37
2024-02-11T18:21:37.511Z,8.18
2024-02-11T18:26:07.288Z,9.48
2024-02-11T18:30:29.493Z,6.30
2024-02-11T18:34:49.605Z,8.75
2024-02-11T18:39:07.387Z,8.65
2024-02-11T18:43:28.357Z,7.20
2024-02-11T18:47:48.474Z,7.53
2024-02-11T18:52:09.146Z,6.82
2024-02-11T18:56:28.630Z,8.52
2024-02-11T19:00:46.202Z,6.87
2024-02-11T19:05:08.639Z,12.68
2024-02-11T19:09:25.765Z,6.00
2024-02-11T19:13:46.839Z,8.00
2024-02-11T19:18:05.037Z,9.80
2024-02-11T19:22:28.547Z,9.52
2024-02-11T19:26:47.679Z,9.60
2024-02-11T19:31:05.217Z,8.63
2024-02-11T19:35:36.053Z,11.68
2024-02-11T19:40:05.108Z,8.77
2024-02-11T19:44:26.847Z,8.83
2024-02-11T19:48:46.113Z,11.77
2024-02-11T19:53:14.606Z,9.65
2024-02-11T19:57:42.709Z,9.03
2024-02-11T20:02:04.751Z,11.70
2024-02-11T20:06:22.599Z,10.43
2024-02-11T20:10:41.806Z,11.60
2024-02-11T20:15:03.656Z,10.15
2024-02-11T20:19:27.429Z,9.60
2024-02-11T20:23:47.286Z,14.95
2024-02-11T20:28:06.411Z,9.77
2024-02-11T20:32:29.312Z,12.80
2024-02-11T20:36:49.865Z,11.95
2024-02-11T20:41:09.091Z,10.83
2024-02-11T20:45:30.854Z,11.77
2024-02-11T20:49:51.824Z,12.88
2024-02-11T20:54:10.912Z,15.23
2024-02-11T20:58:32.342Z,16.92
2024-02-11T21:02:52.164Z,18.23
2024-02-11T21:07:13.189Z,20.38
2024-02-11T21:11:32.685Z,23.73
2024-02-11T21:15:52.029Z,21.40
2024-02-11T21:20:14.671Z,15.95
2024-02-11T21:24:36.888Z,16.57
2024-02-11T21:28:57.947Z,17.67
2024-02-11T21:33:15.778Z,12.65
2024-02-11T21:37:40.284Z,14.00
2024-02-11T21:42:00.487Z,13.10
2024-02-11T21:46:19.480Z,13.73
2024-02-11T21:50:39.331Z,14.85
2024-02-11T21:54:58.622Z,17.33
2024-02-11T21:59:17.130Z,14.85
2024-02-11T22:03:37.866Z,16.63
2024-02-11T22:07:56.406Z,16.17
2024-02-11T22:12:16.241Z,16.83
2024-02-11T22:16:42.130Z,16.17
2024-02-11T22:21:02.428Z,16.10
2024-02-11T22:25:23.376Z,14.27
2024-02-11T22:29:44.119Z,13.40
2024-02-11T22:34:03.181Z,14.13
2024-02-11T22:38:22.720Z,15.70
2024-02-11T22:42:41.871Z,17.45
2024-02-11T22:46:58.820Z,12.05
2024-02-11T22:51:18.741Z,13.00
2024-02-11T22:55:37.813Z,11.93
2024-02-11T22:59:57.002Z,13.55
2024-02-11T23:04:17.117Z,12.87
2024-02-11T23:08:38.884Z,12.52
2024-02-11T23:12:56.686Z,11.35
2024-02-11T23:17:14.690Z,12.77
2024-02-11T23:21:36.132Z,10.90
2024-02-11T23:25:57.543Z,11.90
2024-02-11T23:30:16.276Z,12.13
2024-02-11T23:34:36.844Z,13.10
2024-02-11T23:38:53.959Z,12.13
2024-02-11T23:43:14.406Z,8.65
2024-02-11T23:47:33.719Z,10.60
2024-02-11T23:51:51.386Z,12.73
2024-02-11T23:56:10.450Z,11.93
